createdAt,value
2023-02-06T00:01:09.362Z,2.90
2023-02-06T00:03:35.862Z,3.00
2023-02-06T00:06:02.534Z,2.90
2023-02-06T00:08:29.332Z,3.00
2023-02-06T00:10:55.823Z,3.00
2023-02-06T00:13:22.368Z,2.90
2023-02-06T00:15:48.887Z,3.00
2023-02-06T00:18:15.440Z,2.90
2023-02-06T00:20:42.014Z,2.90
2023-02-06T00:23:08.539Z,2.90
2023-02-06T00:25:35.344Z,2.90
2023-02-06T00:28:02.056Z,3.00
2023-02-06T00:30:28.701Z,2.90
2023-02-06T00:32:55.249Z,2.90
2023-02-06T00:35:21.735Z,2.80
2023-02-06T00:37:48.250Z,2.80
2023-02-06T00:40:14.730Z,2.80
2023-02-06T00:42:41.214Z,2.80
2023-02-06T00:45:07.780Z,2.80
2023-02-06T00:47:35.405Z,2.80
2023-02-06T00:50:01.891Z,2.70
2023-02-06T00:52:28.363Z,2.70
2023-02-06T00:54:54.893Z,2.60
2023-02-06T00:57:21.390Z,2.60
2023-02-06T00:59:47.882Z,2.60
2023-02-06T01:02:14.354Z,2.60
2023-02-06T01:04:40.852Z,2.60
2023-02-06T01:07:07.342Z,2.60
2023-02-06T01:09:34.099Z,2.60
2023-02-06T01:12:00.653Z,2.60
2023-02-06T01:14:27.179Z,2.60
2023-02-06T01:16:53.670Z,2.60
2023-02-06T01:19:20.187Z,2.60
2023-02-06T01:21:46.699Z,2.60
2023-02-06T01:24:13.181Z,2.60
2023-02-06T01:26:39.653Z,2.60
2023-02-06T01:29:06.137Z,2.60
2023-02-06T01:31:32.704Z,2.60
2023-02-06T01:33:59.356Z,2.60
2023-02-06T01:36:25.862Z,2.60
2023-02-06T01:38:52.443Z,2.50
2023-02-06T01:41:18.956Z,2.50
2023-02-06T01:43:45.426Z,2.50
2023-02-06T01:46:12.066Z,2.50
2023-02-06T01:48:38.661Z,2.40
2023-02-06T01:51:05.142Z,2.40
2023-02-06T01:53:31.742Z,2.40
2023-02-06T01:55:58.228Z,2.50
2023-02-06T01:58:24.784Z,2.40
2023-02-06T02:00:51.354Z,2.40
2023-02-06T02:03:17.907Z,2.40
2023-02-06T02:05:44.453Z,2.40
2023-02-06T02:08:10.936Z,2.50
2023-02-06T02:10:37.493Z,2.50
2023-02-06T02:13:03.977Z,2.50
2023-02-06T02:15:30.442Z,2.50
2023-02-06T02:17:56.985Z,2.50
2023-02-06T02:20:23.475Z,2.50
2023-02-06T02:22:50.056Z,2.50
2023-02-06T02:25:16.594Z,2.40
2023-02-06T02:27:43.233Z,2.40
2023-02-06T02:30:10.917Z,2.30
2023-02-06T02:32:37.700Z,2.30
2023-02-06T02:35:04.253Z,2.30
2023-02-06T02:37:30.741Z,2.30
2023-02-06T02:39:57.286Z,2.30
2023-02-06T02:42:23.818Z,2.20
2023-02-06T02:44:50.875Z,2.30
2023-02-06T02:47:17.745Z,2.20
2023-02-06T02:49:44.241Z,2.20
2023-02-06T02:52:10.744Z,2.20
2023-02-06T02:54:37.240Z,2.20
2023-02-06T02:57:03.741Z,2.20
2023-02-06T02:59:30.294Z,2.30
2023-02-06T03:01:56.907Z,2.30
2023-02-06T03:04:23.769Z,2.30
2023-02-06T03:06:50.248Z,2.30
2023-02-06T03:09:16.754Z,2.30
2023-02-06T03:11:43.264Z,2.30
2023-02-06T03:14:09.787Z,2.20
2023-02-06T03:16:36.348Z,2.20
2023-02-06T03:19:02.824Z,2.20
2023-02-06T03:21:29.380Z,2.30
2023-02-06T03:23:55.884Z,2.20
2023-02-06T03:26:22.417Z,2.20
2023-02-06T03:28:48.902Z,2.30
2023-02-06T03:31:15.599Z,2.20
2023-02-06T03:33:42.197Z,2.20
2023-02-06T03:36:11.021Z,2.10
2023-02-06T03:38:37.529Z,2.10
2023-02-06T03:41:04.018Z,2.20
2023-02-06T03:43:30.543Z,2.20
2023-02-06T03:45:57.103Z,2.20
2023-02-06T03:48:23.657Z,2.20
2023-02-06T03:50:50.287Z,2.20
2023-02-06T03:53:16.789Z,2.20
2023-02-06T03:55:43.274Z,2.20
2023-02-06T03:58:09.763Z,2.10
2023-02-06T04:00:36.275Z,2.10
2023-02-06T04:03:02.758Z,2.10
2023-02-06T04:05:29.254Z,2.10
2023-02-06T04:07:56.659Z,2.10
2023-02-06T04:10:25.357Z,2.10
2023-02-06T04:12:52.797Z,2.10
2023-02-06T04:15:19.285Z,2.20
2023-02-06T04:17:58.977Z,2.10
2023-02-06T04:20:26.755Z,2.10
2023-02-06T04:22:53.263Z,2.10
2023-02-06T04:25:19.835Z,2.10
2023-02-06T04:27:46.388Z,2.10
2023-02-06T04:30:12.954Z,2.10
2023-02-06T04:32:39.440Z,2.10
2023-02-06T04:35:06.044Z,2.10
2023-02-06T04:37:32.556Z,2.10
2023-02-06T04:39:59.195Z,2.10
2023-02-06T04:42:25.681Z,2.10
2023-02-06T04:44:52.250Z,2.10
2023-02-06T04:47:18.825Z,2.10
2023-02-06T04:49:45.383Z,2.00
2023-02-06T04:52:11.873Z,2.00
2023-02-06T04:54:38.343Z,2.00
2023-02-06T04:57:04.845Z,1.90
2023-02-06T04:59:31.371Z,2.00
2023-02-06T05:01:57.896Z,2.00
2023-02-06T05:04:24.397Z,2.00
2023-02-06T05:06:50.916Z,2.00
2023-02-06T05:09:17.393Z,2.00
2023-02-06T05:11:43.907Z,1.90
2023-02-06T05:14:10.391Z,1.80
2023-02-06T05:16:36.872Z,1.80
2023-02-06T05:19:03.356Z,1.70
2023-02-06T05:21:29.919Z,1.70
2023-02-06T05:23:56.452Z,1.70
2023-02-06T05:26:22.960Z,1.70
2023-02-06T05:28:49.507Z,1.70
2023-02-06T05:31:19.734Z,1.70
2023-02-06T05:33:46.478Z,1.80
2023-02-06T05:36:13.139Z,1.80
2023-02-06T05:38:39.905Z,1.80
2023-02-06T05:41:06.381Z,1.80
2023-02-06T05:43:33.678Z,1.80
2023-02-06T05:46:00.249Z,1.80
2023-02-06T05:48:28.967Z,1.80
2023-02-06T05:50:55.505Z,1.80
2023-02-06T05:53:22.025Z,1.80
2023-02-06T05:55:48.542Z,1.80
2023-02-06T05:58:15.043Z,1.80
2023-02-06T06:00:41.679Z,1.80
2023-02-06T06:03:08.160Z,1.70
2023-02-06T06:05:34.822Z,1.70
2023-02-06T06:08:01.598Z,1.70
2023-02-06T06:10:28.092Z,1.70
2023-02-06T06:12:54.657Z,1.70
2023-02-06T06:15:21.140Z,1.70
2023-02-06T06:17:47.641Z,1.70
2023-02-06T06:20:14.119Z,1.70
2023-02-06T06:22:40.638Z,1.60
2023-02-06T06:25:07.165Z,1.60
2023-02-06T06:27:33.681Z,1.60
2023-02-06T06:30:00.155Z,1.70
2023-02-06T06:32:26.678Z,1.70
2023-02-06T06:34:53.155Z,1.60
2023-02-06T06:37:19.705Z,1.70
2023-02-06T06:39:46.234Z,1.60
2023-02-06T06:42:12.729Z,1.60
2023-02-06T06:44:39.239Z,1.50
2023-02-06T06:47:05.801Z,1.50
2023-02-06T06:49:34.220Z,1.50
2023-02-06T06:52:00.716Z,1.50
2023-02-06T06:54:27.218Z,1.50
2023-02-06T06:56:53.747Z,1.40
2023-02-06T06:59:20.232Z,1.40
2023-02-06T07:01:48.650Z,1.40
2023-02-06T07:04:15.128Z,1.40
2023-02-06T07:06:41.609Z,1.30
2023-02-06T07:09:08.230Z,1.30
2023-02-06T07:11:34.727Z,1.30
2023-02-06T07:14:01.281Z,1.30
2023-02-06T07:16:28.009Z,1.30
2023-02-06T07:18:54.684Z,1.30
2023-02-06T07:21:21.271Z,1.40
2023-02-06T07:23:47.737Z,1.40
2023-02-06T07:26:14.288Z,1.40
2023-02-06T07:28:42.126Z,1.30
2023-02-06T07:31:08.678Z,1.30
2023-02-06T07:33:35.178Z,1.30
2023-02-06T07:36:03.863Z,1.30
2023-02-06T07:38:30.724Z,1.30
2023-02-06T07:40:57.190Z,1.20
2023-02-06T07:43:23.689Z,1.20
2023-02-06T07:45:50.195Z,1.20
2023-02-06T07:48:16.965Z,1.20
2023-02-06T07:50:43.479Z,1.30
2023-02-06T07:53:09.965Z,1.30
2023-02-06T07:55:37.038Z,1.30
2023-02-06T07:58:03.832Z,1.40
2023-02-06T08:00:30.325Z,1.40
2023-02-06T08:02:56.937Z,1.40
2023-02-06T08:05:23.525Z,1.40
2023-02-06T08:07:50.045Z,1.40
2023-02-06T08:10:16.543Z,1.40
2023-02-06T08:12:43.062Z,1.40
2023-02-06T08:15:09.563Z,1.40
2023-02-06T08:17:36.152Z,1.40
2023-02-06T08:20:02.715Z,1.40
2023-02-06T08:22:29.680Z,1.40
2023-02-06T08:24:56.182Z,1.40
2023-02-06T08:27:22.718Z,1.40
2023-02-06T08:29:49.210Z,1.50
2023-02-06T08:32:15.690Z,1.50
2023-02-06T08:34:42.176Z,1.60
2023-02-06T08:37:08.701Z,1.60
2023-02-06T08:39:35.217Z,1.70
2023-02-06T08:42:01.730Z,1.70
2023-02-06T08:44:28.274Z,1.80
2023-02-06T08:47:08.905Z,1.80
2023-02-06T08:49:36.577Z,1.80
2023-02-06T08:52:03.065Z,1.80
2023-02-06T08:54:29.610Z,1.90
2023-02-06T08:56:56.740Z,1.90
2023-02-06T08:59:23.324Z,1.90
2023-02-06T09:01:49.930Z,1.90
2023-02-06T09:04:16.490Z,1.90
2023-02-06T09:06:43.389Z,1.90
2023-02-06T09:09:10.028Z,1.90
2023-02-06T09:11:36.523Z,1.90
2023-02-06T09:14:03.078Z,1.90
2023-02-06T09:16:29.648Z,1.90
2023-02-06T09:18:56.192Z,2.00
2023-02-06T09:21:22.683Z,2.00
2023-02-06T09:23:49.229Z,2.00
2023-02-06T09:26:15.756Z,2.10
2023-02-06T09:28:42.263Z,2.10
2023-02-06T09:31:08.873Z,2.20
2023-02-06T09:33:35.496Z,2.20
2023-02-06T09:36:01.990Z,2.20
2023-02-06T09:38:28.510Z,2.20
2023-02-06T09:40:54.975Z,2.30
2023-02-06T09:43:21.461Z,2.40
2023-02-06T09:45:47.942Z,2.40
2023-02-06T09:48:14.418Z,2.50
2023-02-06T09:50:40.947Z,2.50
2023-02-06T09:53:07.466Z,2.60
2023-02-06T09:55:34.263Z,2.60
2023-02-06T09:58:01.046Z,2.60
2023-02-06T10:00:27.514Z,2.70
2023-02-06T10:02:54.077Z,2.70
2023-02-06T10:05:20.595Z,2.80
2023-02-06T10:07:47.168Z,2.80
2023-02-06T10:10:13.769Z,2.80
2023-02-06T10:12:40.286Z,2.80
2023-02-06T10:15:06.837Z,2.90
2023-02-06T10:17:33.312Z,3.00
2023-02-06T10:19:59.793Z,3.00
2023-02-06T10:22:26.885Z,3.10
2023-02-06T10:24:53.562Z,3.10
2023-02-06T10:27:20.120Z,2.90
2023-02-06T10:29:47.189Z,2.90
2023-02-06T10:32:13.889Z,2.90
2023-02-06T10:34:40.514Z,3.00
2023-02-06T10:37:07.069Z,3.00
2023-02-06T10:39:33.664Z,3.00
2023-02-06T10:42:00.173Z,3.00
2023-02-06T10:44:26.676Z,3.00
2023-02-06T10:46:53.201Z,3.10
2023-02-06T10:49:19.926Z,3.30
2023-02-06T10:51:48.936Z,3.30
2023-02-06T10:54:15.804Z,3.30
2023-02-06T10:56:43.533Z,3.30
2023-02-06T10:59:10.015Z,3.30
2023-02-06T11:01:36.679Z,3.40
2023-02-06T11:04:03.218Z,3.50
2023-02-06T11:06:29.806Z,3.70
2023-02-06T11:08:56.365Z,3.80
2023-02-06T11:11:22.885Z,4.00
2023-02-06T11:13:49.376Z,4.00
2023-02-06T11:16:19.090Z,4.00
2023-02-06T11:18:45.931Z,4.00
2023-02-06T11:21:13.091Z,3.90
2023-02-06T11:23:39.611Z,3.90
2023-02-06T11:26:06.189Z,4.00
2023-02-06T11:28:34.215Z,4.10
2023-02-06T11:31:00.763Z,4.20
2023-02-06T11:33:28.014Z,4.30
2023-02-06T11:35:54.679Z,4.30
2023-02-06T11:38:21.190Z,4.40
2023-02-06T11:40:47.746Z,4.60
2023-02-06T11:43:14.397Z,4.90
2023-02-06T11:45:41.342Z,5.20
2023-02-06T11:48:08.027Z,5.40
2023-02-06T11:50:34.868Z,5.40
2023-02-06T11:53:01.636Z,5.30
2023-02-06T11:55:28.158Z,5.30
2023-02-06T11:57:54.651Z,5.20
2023-02-06T12:00:21.220Z,5.00
2023-02-06T12:02:47.732Z,4.80
2023-02-06T12:05:14.342Z,4.60
2023-02-06T12:07:40.893Z,4.50
2023-02-06T12:10:07.537Z,4.30
2023-02-06T12:12:34.338Z,4.20
2023-02-06T12:15:10.273Z,4.20
2023-02-06T12:17:44.914Z,4.10
2023-02-06T12:20:11.432Z,4.10
2023-02-06T12:22:38.121Z,4.00
2023-02-06T12:25:04.634Z,4.00
2023-02-06T12:27:31.120Z,4.00
2023-02-06T12:29:57.675Z,3.90
2023-02-06T12:32:24.154Z,3.90
2023-02-06T12:34:53.478Z,3.90
2023-02-06T12:37:21.389Z,3.80
2023-02-06T12:39:47.910Z,3.80
2023-02-06T12:42:14.426Z,3.80
2023-02-06T12:44:41.462Z,3.80
2023-02-06T12:47:08.004Z,3.70
2023-02-06T12:49:34.523Z,3.70
2023-02-06T12:52:01.746Z,3.60
2023-02-06T12:54:28.340Z,3.60
2023-02-06T12:56:54.848Z,3.60
2023-02-06T12:59:21.390Z,3.60
2023-02-06T13:01:48.818Z,3.60
2023-02-06T13:04:15.416Z,3.60
2023-02-06T13:06:41.912Z,3.60
2023-02-06T13:09:08.429Z,3.60
2023-02-06T13:11:35.515Z,3.60
2023-02-06T13:14:02.081Z,3.60
2023-02-06T13:16:28.606Z,3.70
2023-02-06T13:18:55.326Z,3.80
2023-02-06T13:21:21.977Z,3.80
2023-02-06T13:23:48.462Z,3.80
2023-02-06T13:26:14.949Z,3.80
2023-02-06T13:28:41.540Z,3.90
2023-02-06T13:31:08.129Z,3.80
2023-02-06T13:33:34.676Z,3.80
2023-02-06T13:36:01.158Z,3.90
2023-02-06T13:38:28.383Z,3.80
2023-02-06T13:40:54.937Z,3.90
2023-02-06T13:43:21.428Z,3.90
2023-02-06T13:45:48.024Z,3.90
2023-02-06T13:48:14.535Z,3.90
2023-02-06T13:50:41.102Z,3.90
2023-02-06T13:53:07.695Z,3.80
2023-02-06T13:55:34.455Z,3.80
2023-02-06T13:58:01.078Z,3.80
2023-02-06T14:00:28.822Z,3.90
2023-02-06T14:02:55.427Z,3.80
2023-02-06T14:05:21.962Z,3.90
2023-02-06T14:07:50.212Z,3.70
2023-02-06T14:10:35.802Z,3.70
2023-02-06T14:13:02.306Z,3.80
2023-02-06T14:15:28.867Z,3.80
2023-02-06T14:17:57.095Z,3.70
2023-02-06T14:20:23.722Z,3.80
2023-02-06T14:22:50.211Z,3.70
2023-02-06T14:25:16.725Z,3.70
2023-02-06T14:27:43.296Z,3.70
2023-02-06T14:30:09.805Z,3.80
2023-02-06T14:32:36.622Z,3.80
2023-02-06T14:35:03.171Z,3.80
2023-02-06T14:37:29.660Z,3.80
2023-02-06T14:39:56.232Z,3.80
2023-02-06T14:42:22.777Z,3.80
2023-02-06T14:44:51.152Z,3.70
2023-02-06T14:47:19.291Z,3.70
2023-02-06T14:49:45.909Z,3.70
2023-02-06T14:52:12.433Z,3.70
2023-02-06T14:54:38.952Z,3.60
2023-02-06T14:57:05.467Z,3.50
2023-02-06T14:59:31.949Z,3.50
2023-02-06T15:01:58.494Z,3.50
2023-02-06T15:04:26.012Z,3.50
2023-02-06T15:06:52.654Z,3.50
2023-02-06T15:09:19.139Z,3.50
2023-02-06T15:11:45.617Z,3.50
2023-02-06T15:14:12.104Z,3.50
2023-02-06T15:16:39.012Z,3.50
2023-02-06T15:19:05.565Z,3.50
2023-02-06T15:21:32.075Z,3.40
2023-02-06T15:23:58.587Z,3.40
2023-02-06T15:26:25.234Z,3.40
2023-02-06T15:28:51.757Z,3.50
2023-02-06T15:31:18.779Z,3.50
2023-02-06T15:33:45.299Z,3.50
2023-02-06T15:36:11.902Z,3.50
2023-02-06T15:38:39.736Z,3.50
2023-02-06T15:41:06.303Z,3.60
2023-02-06T15:43:32.815Z,3.50
2023-02-06T15:45:59.322Z,3.60
2023-02-06T15:48:26.134Z,3.50
2023-02-06T15:50:52.653Z,3.50
2023-02-06T15:53:19.214Z,3.50
2023-02-06T15:55:45.695Z,3.40
2023-02-06T15:58:12.260Z,3.40
2023-02-06T16:00:39.165Z,3.40
2023-02-06T16:03:05.879Z,3.40
2023-02-06T16:05:32.442Z,3.40
2023-02-06T16:07:58.998Z,3.40
2023-02-06T16:10:25.610Z,3.40
2023-02-06T16:12:52.158Z,3.40
2023-02-06T16:15:18.646Z,3.30
2023-02-06T16:17:45.150Z,3.30
2023-02-06T16:20:11.971Z,3.20
2023-02-06T16:22:39.862Z,3.20
2023-02-06T16:25:06.361Z,3.20
2023-02-06T16:27:32.852Z,3.20
2023-02-06T16:29:59.383Z,3.20
2023-02-06T16:32:25.937Z,3.10
2023-02-06T16:34:52.671Z,3.00
2023-02-06T16:37:19.428Z,3.00
2023-02-06T16:39:46.006Z,3.00
2023-02-06T16:42:12.588Z,2.90
2023-02-06T16:44:44.589Z,2.90
2023-02-06T16:47:11.974Z,2.90
2023-02-06T16:49:38.473Z,2.80
2023-02-06T16:52:04.953Z,2.70
2023-02-06T16:54:31.909Z,2.70
2023-02-06T16:56:58.425Z,2.60
2023-02-06T16:59:24.911Z,2.60
2023-02-06T17:01:51.401Z,2.50
2023-02-06T17:04:17.896Z,2.50
2023-02-06T17:06:44.429Z,2.40
2023-02-06T17:09:10.999Z,2.30
2023-02-06T17:11:37.529Z,2.30
2023-02-06T17:14:04.051Z,2.20
2023-02-06T17:16:30.662Z,2.20
2023-02-06T17:18:57.215Z,2.20
2023-02-06T17:21:23.768Z,2.10
2023-02-06T17:23:50.248Z,2.10
2023-02-06T17:26:16.722Z,2.10
2023-02-06T17:28:43.222Z,2.10
2023-02-06T17:31:09.983Z,2.10
2023-02-06T17:33:36.558Z,2.10
2023-02-06T17:36:03.034Z,2.20
2023-02-06T17:38:29.518Z,2.20
2023-02-06T17:40:55.977Z,2.30
2023-02-06T17:43:22.481Z,2.20
2023-02-06T17:45:49.037Z,2.30
2023-02-06T17:48:15.569Z,2.20
2023-02-06T17:50:42.136Z,2.10
2023-02-06T17:53:10.302Z,2.10
2023-02-06T17:55:36.904Z,2.00
2023-02-06T17:58:03.414Z,1.90
2023-02-06T18:00:29.882Z,1.90
2023-02-06T18:02:56.434Z,1.80
2023-02-06T18:05:22.968Z,1.80
2023-02-06T18:07:50.625Z,1.70
2023-02-06T18:10:17.107Z,1.70
2023-02-06T18:12:43.588Z,1.70
2023-02-06T18:15:10.431Z,1.70
2023-02-06T18:17:36.910Z,1.70
2023-02-06T18:20:03.498Z,1.70
2023-02-06T18:22:30.028Z,1.70
2023-02-06T18:24:56.562Z,1.70
2023-02-06T18:27:23.165Z,1.70
2023-02-06T18:29:52.549Z,1.60
2023-02-06T18:32:19.152Z,1.60
2023-02-06T18:34:45.677Z,1.60
2023-02-06T18:37:12.177Z,1.50
2023-02-06T18:39:39.509Z,1.50
2023-02-06T18:42:24.970Z,1.40
2023-02-06T18:44:51.490Z,1.40
2023-02-06T18:47:18.776Z,1.30
2023-02-06T18:49:45.298Z,1.30
2023-02-06T18:52:11.801Z,1.30
2023-02-06T18:54:39.449Z,1.30
2023-02-06T18:57:05.968Z,1.40
2023-02-06T18:59:32.461Z,1.40
2023-02-06T19:01:58.992Z,1.40
2023-02-06T19:04:25.679Z,1.50
2023-02-06T19:06:52.203Z,1.50
2023-02-06T19:09:20.003Z,1.50
2023-02-06T19:11:46.512Z,1.50
2023-02-06T19:14:15.089Z,1.60
2023-02-06T19:16:44.387Z,1.60
2023-02-06T19:19:11.210Z,1.60
2023-02-06T19:21:37.749Z,1.60
2023-02-06T19:24:04.245Z,1.60
2023-02-06T19:26:30.822Z,1.50
2023-02-06T19:28:57.325Z,1.40
2023-02-06T19:31:23.950Z,1.40
2023-02-06T19:33:50.713Z,1.40
2023-02-06T19:36:17.403Z,1.40
2023-02-06T19:38:43.882Z,1.40
2023-02-06T19:41:10.367Z,1.40
2023-02-06T19:43:36.943Z,1.40
2023-02-06T19:46:03.546Z,1.50
2023-02-06T19:48:30.057Z,1.40
2023-02-06T19:50:56.602Z,1.50
2023-02-06T19:53:23.125Z,1.40
2023-02-06T19:55:49.672Z,1.50
2023-02-06T19:58:16.217Z,1.50
2023-02-06T20:00:42.736Z,1.50
2023-02-06T20:03:09.331Z,1.60
2023-02-06T20:05:35.858Z,1.60
2023-02-06T20:08:02.325Z,1.60
2023-02-06T20:10:29.196Z,1.60
2023-02-06T20:12:58.494Z,1.60
2023-02-06T20:15:25.092Z,1.60
2023-02-06T20:17:51.689Z,1.50
2023-02-06T20:20:18.171Z,1.40
2023-02-06T20:22:44.686Z,1.30
2023-02-06T20:25:11.200Z,1.30
2023-02-06T20:27:37.767Z,1.20
2023-02-06T20:30:04.250Z,1.20
2023-02-06T20:32:30.975Z,1.20
2023-02-06T20:34:58.378Z,1.10
2023-02-06T20:37:24.874Z,1.00
2023-02-06T20:39:51.451Z,1.00
2023-02-06T20:42:19.363Z,1.00
2023-02-06T20:44:45.845Z,0.90
2023-02-06T20:47:12.339Z,0.90
2023-02-06T20:49:38.829Z,0.90
2023-02-06T20:52:06.243Z,0.90
2023-02-06T20:54:32.720Z,0.90
2023-02-06T20:57:00.325Z,0.90
2023-02-06T20:59:27.246Z,0.80
2023-02-06T21:01:53.750Z,0.70
2023-02-06T21:04:20.307Z,0.60
2023-02-06T21:06:48.392Z,0.60
2023-02-06T21:09:14.970Z,0.60
2023-02-06T21:11:41.645Z,0.50
2023-02-06T21:14:08.176Z,0.50
2023-02-06T21:16:34.716Z,0.50
2023-02-06T21:19:01.271Z,0.50
2023-02-06T21:21:27.761Z,0.50
2023-02-06T21:23:57.356Z,0.40
2023-02-06T21:26:24.031Z,0.40
2023-02-06T21:28:50.640Z,0.40
2023-02-06T21:31:17.345Z,0.40
2023-02-06T21:33:43.907Z,0.50
2023-02-06T21:36:10.412Z,0.50
2023-02-06T21:38:36.902Z,0.50
2023-02-06T21:41:03.426Z,0.60
2023-02-06T21:43:30.392Z,0.60
2023-02-06T21:45:58.023Z,0.60
2023-02-06T21:48:24.561Z,0.70
2023-02-06T21:50:51.153Z,0.60
2023-02-06T21:53:17.634Z,0.70
2023-02-06T21:55:44.149Z,0.70
2023-02-06T21:58:10.695Z,0.60
2023-02-06T22:00:37.249Z,0.60
2023-02-06T22:03:03.817Z,0.60
2023-02-06T22:05:30.779Z,0.50
2023-02-06T22:07:58.660Z,0.40
2023-02-06T22:10:25.166Z,0.30
2023-02-06T22:12:51.692Z,0.20
2023-02-06T22:15:18.161Z,0.20
2023-02-06T22:17:44.632Z,0.20
2023-02-06T22:20:11.156Z,0.20
2023-02-06T22:22:38.577Z,0.10
2023-02-06T22:25:05.452Z,0.10
2023-02-06T22:27:31.925Z,0.10
2023-02-06T22:29:58.461Z,0.10
2023-02-06T22:32:25.026Z,0.10
2023-02-06T22:34:53.659Z,0.00
2023-02-06T22:37:20.228Z,0.00
2023-02-06T22:39:46.717Z,0.00
2023-02-06T22:42:13.194Z,0.00
2023-02-06T22:44:39.669Z,-0.10
2023-02-06T22:47:06.247Z,0.00
2023-02-06T22:49:32.743Z,-0.10
2023-02-06T22:51:59.262Z,-0.10
2023-02-06T22:54:25.755Z,-0.10
2023-02-06T22:56:52.324Z,-0.10
2023-02-06T22:59:18.812Z,-0.20
2023-02-06T23:01:45.454Z,-0.10
2023-02-06T23:04:12.000Z,-0.10
2023-02-06T23:06:38.640Z,-0.20
2023-02-06T23:09:05.311Z,-0.20
2023-02-06T23:11:31.883Z,-0.20
2023-02-06T23:13:58.432Z,-0.20
2023-02-06T23:16:24.954Z,-0.20
2023-02-06T23:18:51.495Z,-0.30
2023-02-06T23:21:17.983Z,-0.30
2023-02-06T23:23:44.538Z,-0.40
2023-02-06T23:26:11.189Z,-0.30
2023-02-06T23:28:37.664Z,-0.40
2023-02-06T23:31:04.284Z,-0.40
2023-02-06T23:33:30.823Z,-0.30
2023-02-06T23:35:57.300Z,-0.40
2023-02-06T23:38:23.811Z,-0.30
2023-02-06T23:40:50.306Z,-0.40
2023-02-06T23:43:16.844Z,-0.50
2023-02-06T23:45:43.351Z,-0.50
2023-02-06T23:48:09.871Z,-0.60
2023-02-06T23:50:36.714Z,-0.60
2023-02-06T23:53:03.260Z,-0.60
2023-02-06T23:55:30.540Z,-0.70
2023-02-06T23:57:57.327Z,-0.70
